• Join FlightAware (Why Join?)
  • Login
  • US Flag GB Flag 
04:31 EDT


 

Airport Tracker/Info


-or-


 

Live Flight TrackerFlight Track Log ✈ FLG3432 ✈ 27-Jun-2013 ✈ KSLC - KDFW

Flight Track Log - Related Links

Times and Time Zones

All times are in EDT time to prevent confusion due to time zone crossing. See the FLG3432 flight status page for this flight to view local times or setup timezone preferences in your user account.

Time Position Orientation Groundspeed Altitude Reporting Facility
EDT Latitude Longitude Course Direction KTS MPH feet Rate Location/Type
22:33 40.8217 -111.9797 163° South 191 220 5,100  Level Salt Lake Center
22:34 40.9033 -111.9889 355° North 223 257 6,800 1,260 Climbing Salt Lake Center
22:35 40.9447 -111.9942 354° North 250 288 7,600 1,680 Climbing Salt Lake Center
22:36 41.1333 -111.8344 90° East  Level FlightAware Approximate
22:36 41.0203 -111.9839 North 267 307 9,500  Level Salt Lake Center
22:37 41.0626 -111.7414 163° South  Level FlightAware Approximate
22:37 41.0881 -111.9400 26° Northeast 291 335 11,300  Level Salt Lake Center
22:38 40.9565 -111.6976 163° South  Level FlightAware Approximate
22:38 41.0542 -111.8578 119° Southeast 276 318 13,200  Level Salt Lake Center
22:39 40.9917 -111.8094 150° Southeast 286 329 14,000 720 Climbing Salt Lake Center
22:40 40.9050 -111.7417 149° Southeast 348 400 14,700 1,080 Climbing Salt Lake Center
22:41 40.8156 -111.6722 150° Southeast 361 415 16,300 1,500 Climbing Salt Lake Center
22:42 40.7561 -111.5578 124° Southeast 381 438 17,800 1,260 Climbing Salt Lake Center
22:43 40.7133 -111.4214 112° Southeast 394 453 18,900 1,260 Climbing Salt Lake Center
22:44 40.6683 -111.2786 113° Southeast 419 482 20,400 1,260 Climbing Salt Lake Center
22:45 40.6375 -111.1211 104° East 436 502 21,600 1,200 Climbing Salt Lake Center
22:46 40.6250 -110.9606 96° East 433 498 22,900 1,140 Climbing Salt Lake Center
22:47 40.6044 -110.7972 99° East 436 502 24,000 1,020 Climbing Salt Lake Center
22:48 40.5672 -110.6731 112° Southeast 440 506 25,000 1,020 Climbing Salt Lake Center
22:49 40.5075 -110.4981 114° Southeast 390 449 26,200 960 Climbing Salt Lake Center
22:50 40.4611 -110.3519 113° Southeast 436 502 27,000 840 Climbing Salt Lake Center
22:51 40.3939 -110.1867 118° Southeast 454 522 28,000 960 Climbing Salt Lake Center
22:52 40.3164 -110.0597 129° Southeast 460 529 29,000 1,080 Climbing Salt Lake Center
22:53 40.2258 -109.9103 128° Southeast 467 537 30,300 1,320 Climbing Salt Lake Center
22:54 40.1514 -109.7864 128° Southeast 459 528 31,800 1,200 Climbing Salt Lake Center
22:55 40.0783 -109.6644 128° Southeast 448 516 32,800 540 Climbing Salt Lake Center
22:56 39.9933 -109.5219 128° Southeast 448 516 33,000 60 Climbing Salt Lake Center
22:57 39.9186 -109.3894 126° Southeast 467 537 33,000  Level Salt Lake Center
22:58 39.8344 -109.2339 125° Southeast 469 540 33,000  Level Salt Lake Center
22:59 39.7633 -109.1031 125° Southeast 463 533 33,000 180 Level Salt Lake Center
23:00 39.6817 -108.9542 125° Southeast 457 526 33,400 540 Climbing Salt Lake Center
23:01 39.6119 -108.8361 127° Southeast 464 534 34,200 900 Climbing Salt Lake Center
23:02 39.5333 -108.6850 124° Southeast 457 526 35,300 780 Climbing Salt Lake Center
23:03 39.4658 -108.5614 125° Southeast 444 511 35,900 600 Climbing Salt Lake Center
23:04 39.3867 -108.4181 126° Southeast 439 505 36,600 480 Climbing Salt Lake Center
23:05 39.3186 -108.2961 126° Southeast 438 504 37,000 120 Climbing Salt Lake Center
23:07 39.2156 -108.1089 125° Southeast 447 514 37,000  Level Denver Center
23:08 39.1336 -107.9656 126° Southeast 445 512 37,000  Level Denver Center
23:09 39.0642 -107.8444 126° Southeast 441 507 37,000  Level Denver Center
23:10 38.9833 -107.7025 126° Southeast 440 506 37,000  Level Denver Center
23:11 38.9122 -107.5786 126° Southeast 447 514 37,000  Level Denver Center
23:12 38.8408 -107.4525 126° Southeast 454 522 37,000  Level Denver Center
23:13 38.7581 -107.3097 127° Southeast 447 514 37,000  Level Denver Center
23:14 38.6889 -107.1897 126° Southeast 439 505 37,000  Level Denver Center
23:15 38.6008 -107.0389 127° Southeast 443 510 37,000  Level Denver Center
23:16 38.5275 -106.9136 127° Southeast 443 510 37,000  Level Denver Center
23:17 38.4539 -106.7858 126° Southeast 446 513 37,000  Level Denver Center
23:18 38.3653 -106.6356 127° Southeast 446 513 37,000  Level Denver Center
23:19 38.2886 -106.5042 127° Southeast 447 514 37,000  Level Denver Center
23:20 38.2181 -106.3847 127° Southeast 442 509 37,000  Level Denver Center
23:21 38.1444 -106.2628 127° Southeast 435 501 37,000  Level Denver Center
23:22 38.0500 -106.1475 136° Southeast 433 498 37,000  Level Denver Center
23:24 37.9650 -106.0450 136° Southeast 438 504 37,000  Level Denver Center
23:25 37.8628 -105.9311 139° Southeast 439 505 37,000  Level Denver Center
23:26 37.7706 -105.8375 141° Southeast 442 509 37,000  Level Denver Center
23:27 37.6614 -105.7308 142° Southeast 444 511 37,000  Level Denver Center
23:28 37.5683 -105.6419 143° Southeast 439 505 37,000  Level Denver Center
23:29 37.4642 -105.5611 148° Southeast 437 503 37,000  Level Denver Center
23:30 37.3464 -105.4736 149° Southeast 434 499 37,000  Level Denver Center
23:31 37.2536 -105.4028 149° Southeast 431 496 37,000  Level Denver Center
23:32 37.1397 -105.3186 149° Southeast 427 491 37,000  Level Denver Center
23:33 37.0411 -105.2425 148° Southeast 433 498 37,000  Level Denver Center
23:34 36.9311 -105.1603 149° Southeast 442 509 37,000  Level Denver Center
23:35 36.8258 -105.0689 145° Southeast 443 510 37,000  Level Albuquerque Center
23:36 36.7336 -104.9836 143° Southeast 436 502 37,000  Level Albuquerque Center
23:37 36.6356 -104.8953 144° Southeast 432 497 37,000  Level Albuquerque Center
23:38 36.5358 -104.8053 144° Southeast 436 502 37,000  Level Albuquerque Center
23:39 36.4358 -104.7144 144° Southeast 439 505 37,000  Level Albuquerque Center
23:40 36.3358 -104.6233 144° Southeast 440 506 37,000  Level Albuquerque Center
23:41 36.2344 -104.5333 144° Southeast 443 510 37,000  Level Albuquerque Center
23:42 36.1333 -104.4425 144° Southeast 445 512 37,000  Level Albuquerque Center
23:43 36.0147 -104.3353 144° Southeast 447 514 37,000  Level Albuquerque Center
23:44 35.9125 -104.2444 144° Southeast 448 516 37,000  Level Albuquerque Center
23:46 35.7094 -104.0628 144° Southeast 444 511 37,000  Level Albuquerque Center
23:47 35.6086 -103.9731 144° Southeast 442 509 37,000  Level Albuquerque Center
23:48 35.5092 -103.8844 144° Southeast 436 502 37,000  Level Albuquerque Center
23:49 35.4075 -103.7956 145° Southeast 439 505 37,000  Level Albuquerque Center
23:50 35.3053 -103.7067 145° Southeast 442 509 37,000  Level Albuquerque Center
23:51 35.2078 -103.6089 141° Southeast 450 518 37,000  Level Albuquerque Center
23:52 35.1497 -103.4742 118° Southeast 449 517 37,000  Level Albuquerque Center
23:53 35.1139 -103.3314 107° East 439 505 37,000  Level Albuquerque Center
23:54 35.0769 -103.1911 108° East 433 498 37,000  Level Albuquerque Center
23:55 35.0392 -103.0514 108° East 431 496 37,000  Level Albuquerque Center
23:56 35.0019 -102.9106 108° East 433 498 37,000  Level Albuquerque Center
23:57 34.9650 -102.7678 107° East 436 502 37,000  Level Albuquerque Center
23:58 34.9253 -102.6178 108° East 435 501 37,000  Level Albuquerque Center
23:59 34.8875 -102.4781 108° East 436 502 37,000  Level Albuquerque Center
00:00 34.8500 -102.3389 108° East 436 502 37,000  Level Albuquerque Center
00:01 34.8128 -102.1992 108° East 436 502 37,000  Level Albuquerque Center
00:02 34.7742 -102.0600 109° East 437 503 37,000  Level Albuquerque Center
00:03 34.7289 -101.8919 108° East 439 505 37,000  Level Albuquerque Center
00:04 34.6919 -101.7586 109° East 426 490 37,000  Level Albuquerque Center
00:05 34.6572 -101.6281 108° East 414 476 37,000  Level Albuquerque Center
00:06 34.6211 -101.4950 108° East 416 479 37,000  Level Albuquerque Center
00:07 34.5833 -101.3608 109° East 420 483 37,000  Level Albuquerque Center
00:08 34.5461 -101.2272 109° East 420 483 37,000  Level Albuquerque Center
00:09 34.5094 -101.0944 108° East 419 482 37,000  Level Albuquerque Center
00:10 34.4725 -100.9631 109° East 417 480 37,000  Level Albuquerque Center
00:12 34.4281 -100.8047 109° East 415 478 37,000  Level Albuquerque Center
00:13 34.3897 -100.6733 109° East 415 478 37,000 -480 Level Albuquerque Center
00:13 34.3686 -100.5961 108° East 415 478 36,200 -1,680 Descending Fort Worth Center
00:14 34.3322 -100.4642 108° East 415 478 34,200 -1,620 Descending Fort Worth Center
00:15 34.2917 -100.3244 109° East 421 484 33,000 -600 Descending Fort Worth Center
00:16 34.2511 -100.1847 109° East 434 499 33,000  Level Fort Worth Center
00:17 34.2083 -100.0403 110° East 439 505 33,000  Level Fort Worth Center
00:18 34.1675 -99.8961 109° East 449 517 33,000  Level Fort Worth Center
00:19 34.1242 -99.7517 110° East 449 517 33,000  Level Fort Worth Center
00:20 34.0831 -99.6078 109° East 449 517 33,000 -120 Level Fort Worth Center
00:21 34.0397 -99.4661 110° East 456 525 32,800 -600 Descending Fort Worth Center
00:22 33.9981 -99.3250 110° East 450 518 31,800 -1,020 Descending Fort Worth Center
00:23 33.9542 -99.1814 110° East 450 518 30,800 -1,020 Descending Fort Worth Center
00:24 33.9103 -99.0453 111° Southeast 450 518 29,800 -1,020 Descending Fort Worth Center
00:25 33.8617 -98.9092 113° Southeast 445 512 28,800 -1,200 Descending Fort Worth Center
00:26 33.8050 -98.7583 114° Southeast 439 505 27,400 -1,680 Descending Fort Worth Center
00:27 33.7542 -98.6200 114° Southeast 444 511 25,500 -1,800 Descending Fort Worth Center
00:28 33.7136 -98.5122 114° Southeast 444 511 23,900 -2,100 Descending Fort Worth Center
00:29 33.6542 -98.3617 115° Southeast 444 511 21,400 -2,580 Descending Fort Worth Center
00:30 33.6031 -98.2167 113° Southeast 435 501 18,800 -2,280 Descending Fort Worth Center
00:31 33.5536 -98.0914 115° Southeast 415 478 16,900 -1,920 Descending Fort Worth Center
00:32 33.5106 -97.9789 115° Southeast 408 470 15,000 -2,040 Descending Fort Worth Center
00:33 33.4608 -97.8492 115° Southeast 397 457 12,900 -1,980 Descending Fort Worth Center
00:34 33.4194 -97.7419 115° Southeast 397 457 11,100 -960 Descending Fort Worth Center
00:35 33.3697 -97.6175 116° Southeast 380 437 11,000 -420 Descending Fort Worth Center
00:36 33.3156 -97.5278 126° Southeast 349 402 10,300 -840 Descending Fort Worth Center
00:37 33.2717 -97.4508 124° Southeast 316 364 9,400 -1,140 Descending Fort Worth Center
00:38 33.2217 -97.3639 124° Southeast 299 344 8,100 -1,380 Descending Fort Worth Center
00:39 33.1756 -97.2819 124° Southeast 299 344 6,700 -1,500 Descending Fort Worth Center
00:40 33.1422 -97.1925 114° Southeast 286 329 5,100 -1,380 Descending Fort Worth Center
00:41 33.1147 -97.1108 112° Southeast 276 318 4,000 -1,080 Descending Fort Worth Center
00:42 33.0708 -97.0639 138° Southeast 224 258 3,000 -600 Descending Fort Worth Center
00:43 33.0333 -97.0517 165° South 187 215 2,800 -540 Descending Fort Worth Center
00:44 32.9894 -97.0494 178° South 161 185 2,000 -780 Descending Fort Worth Center
00:45 32.9519 -97.0519 183° South 149 171 1,300 -720 Descending Fort Worth Center